Terminal Aerodrome Forecast
Issued by NWS Houston/Galveston, TX

Home | Current Version | Previous Version | Text Only | Print | Product List | Glossary On
Versions: 1 2 3 4 5 6 7 8 9 10 11 12 13 14 15 16 17 18 19 20 21
000
FTUS44 KHGX 211305 AAB
TAFCLL
TAF AMD
KCLL 211305Z 2113/2212 12004KT P6SM SCT025 OVC045
     FM211600 18007KT P6SM SCT025 BKN250
     FM212300 02007KT P6SM SCT045 BKN250
     FM220400 01011KT P6SM BKN050 BKN250
     FM220800 36013G23KT P6SM BKN025=

USA.gov is the U.S. government's official web portal to all federal, state and local government web resources and services.